createdAt,value
2023-05-06T00:01:46.024Z,22.17
2023-05-06T00:04:12.529Z,26.00
2023-05-06T00:06:38.996Z,22.25
2023-05-06T00:09:05.491Z,20.45
2023-05-06T00:11:32.018Z,22.25
2023-05-06T00:13:58.516Z,19.13
2023-05-06T00:16:25.039Z,26.73
2023-05-06T00:18:51.562Z,28.35
2023-05-06T00:21:18.028Z,22.50
2023-05-06T00:23:44.527Z,26.25
2023-05-06T00:26:11.028Z,28.10
2023-05-06T00:28:37.493Z,21.52
2023-05-06T00:31:04.019Z,23.38
2023-05-06T00:33:30.689Z,28.50
2023-05-06T00:35:57.170Z,27.30
2023-05-06T00:38:23.836Z,25.38
2023-05-06T00:40:50.319Z,23.75
2023-05-06T00:43:16.822Z,23.45
2023-05-06T00:45:44.182Z,35.20
2023-05-06T00:48:10.918Z,25.83
2023-05-06T00:50:39.548Z,26.58
2023-05-06T00:53:08.890Z,28.77
2023-05-06T00:55:35.724Z,23.67
2023-05-06T00:58:02.716Z,24.67
2023-05-06T01:00:29.207Z,30.50
2023-05-06T01:02:56.684Z,30.17
2023-05-06T01:05:29.233Z,30.02
2023-05-06T01:08:08.080Z,34.65
2023-05-06T01:10:45.933Z,25.55
2023-05-06T01:13:34.338Z,33.05
2023-05-06T01:16:02.161Z,31.92
2023-05-06T01:18:31.793Z,26.15
2023-05-06T01:20:59.938Z,29.42
2023-05-06T01:23:26.848Z,26.08
2023-05-06T01:25:53.347Z,25.95
2023-05-06T01:28:19.800Z,33.03
2023-05-06T01:30:52.413Z,30.70
2023-05-06T01:33:26.326Z,32.35
2023-05-06T01:36:08.416Z,29.30
2023-05-06T01:38:41.104Z,30.35
2023-05-06T01:41:09.152Z,23.35
2023-05-06T01:43:41.378Z,29.25
2023-05-06T01:46:12.567Z,27.08
2023-05-06T01:48:40.673Z,25.75
2023-05-06T01:51:07.366Z,28.92
2023-05-06T01:53:33.907Z,29.45
2023-05-06T01:56:00.634Z,28.83
2023-05-06T01:58:27.191Z,26.52
2023-05-06T02:00:53.675Z,28.30
2023-05-06T02:03:20.330Z,28.48
2023-05-06T02:05:47.343Z,25.42
2023-05-06T02:08:13.929Z,25.00
2023-05-06T02:10:41.143Z,32.08
2023-05-06T02:13:10.405Z,33.80
2023-05-06T02:15:37.131Z,38.22
2023-05-06T02:18:05.320Z,30.63
2023-05-06T02:20:31.830Z,35.55
2023-05-06T02:22:58.537Z,39.60
2023-05-06T02:25:25.026Z,35.67
2023-05-06T02:27:51.517Z,42.78
2023-05-06T02:30:18.089Z,30.42
2023-05-06T02:32:44.605Z,46.88
2023-05-06T02:35:11.299Z,31.15
2023-05-06T02:37:37.987Z,43.47
2023-05-06T02:40:04.779Z,36.78
2023-05-06T02:42:33.599Z,32.85
2023-05-06T02:45:00.145Z,34.17
2023-05-06T02:47:26.650Z,34.65
2023-05-06T02:49:53.216Z,40.63
2023-05-06T02:52:19.669Z,48.70
2023-05-06T02:54:46.161Z,37.22
2023-05-06T02:57:12.667Z,36.22
2023-05-06T02:59:39.092Z,34.15
2023-05-06T03:02:05.574Z,40.72
2023-05-06T03:04:32.179Z,40.85
2023-05-06T03:06:58.746Z,31.48
2023-05-06T03:09:25.261Z,32.95
2023-05-06T03:11:51.866Z,41.30
2023-05-06T03:14:19.461Z,46.10
2023-05-06T03:16:45.941Z,35.90
2023-05-06T03:19:12.455Z,38.17
2023-05-06T03:21:39.546Z,41.05
2023-05-06T03:24:06.539Z,42.88
2023-05-06T03:26:34.460Z,37.78
2023-05-06T03:29:01.219Z,42.83
2023-05-06T03:31:27.785Z,35.70
2023-05-06T03:33:55.674Z,44.00
2023-05-06T03:36:22.607Z,40.08
2023-05-06T03:38:51.456Z,37.75
2023-05-06T03:41:18.093Z,31.73
2023-05-06T03:43:45.372Z,32.42
2023-05-06T03:46:12.988Z,40.95
2023-05-06T03:48:39.503Z,33.65
2023-05-06T03:51:10.168Z,38.92
2023-05-06T03:53:36.694Z,31.60
2023-05-06T03:56:04.130Z,31.88
2023-05-06T03:58:31.688Z,34.42
2023-05-06T04:00:58.924Z,26.83
2023-05-06T04:03:25.530Z,38.45
2023-05-06T04:05:52.104Z,28.25
2023-05-06T04:08:22.927Z,36.45
2023-05-06T04:10:49.468Z,29.67
2023-05-06T04:13:24.810Z,24.00
2023-05-06T04:15:51.944Z,38.80
2023-05-06T04:18:22.137Z,44.95
2023-05-06T04:21:01.338Z,34.53
2023-05-06T04:23:30.320Z,24.67
2023-05-06T04:25:58.231Z,35.28
2023-05-06T04:28:25.776Z,36.00
2023-05-06T04:30:54.368Z,34.30
2023-05-06T04:33:24.433Z,35.03
2023-05-06T04:35:53.524Z,34.25
2023-05-06T04:38:21.025Z,31.17
2023-05-06T04:40:48.582Z,26.65
2023-05-06T04:43:15.781Z,30.38
2023-05-06T04:45:44.149Z,37.33
2023-05-06T04:48:10.775Z,31.15
2023-05-06T04:50:37.396Z,45.05
2023-05-06T04:53:03.906Z,30.75
2023-05-06T04:55:30.492Z,37.55
2023-05-06T04:57:57.044Z,28.92
2023-05-06T05:00:23.481Z,31.48
2023-05-06T05:02:51.410Z,30.05
2023-05-06T05:05:18.263Z,40.42
2023-05-06T05:07:48.390Z,35.17
2023-05-06T05:10:15.089Z,36.75
2023-05-06T05:12:41.684Z,35.15
2023-05-06T05:15:08.977Z,36.78
2023-05-06T05:17:35.743Z,36.55
2023-05-06T05:20:02.543Z,33.90
2023-05-06T05:22:30.383Z,33.88
2023-05-06T05:24:56.942Z,24.85
2023-05-06T05:27:23.580Z,23.75
2023-05-06T05:29:50.894Z,35.63
2023-05-06T05:32:17.526Z,30.88
2023-05-06T05:34:44.044Z,32.35
2023-05-06T05:37:10.635Z,29.65
2023-05-06T05:39:37.186Z,34.17
2023-05-06T05:42:03.920Z,28.65
2023-05-06T05:44:31.577Z,24.60
2023-05-06T05:46:58.178Z,25.00
2023-05-06T05:49:24.757Z,26.85
2023-05-06T05:51:53.244Z,24.77
2023-05-06T05:54:21.388Z,30.13
2023-05-06T05:56:48.102Z,28.05
2023-05-06T05:59:15.373Z,28.08
2023-05-06T06:01:43.375Z,32.38
2023-05-06T06:04:10.376Z,31.58
2023-05-06T06:06:37.082Z,29.67
2023-05-06T06:09:03.888Z,29.05
2023-05-06T06:11:30.511Z,29.70
2023-05-06T06:13:58.156Z,32.88
2023-05-06T06:16:25.732Z,28.80
2023-05-06T06:18:53.473Z,35.88
2023-05-06T06:21:19.962Z,28.02
2023-05-06T06:23:47.019Z,30.58
2023-05-06T06:26:13.537Z,33.83
2023-05-06T06:28:40.151Z,29.95
2023-05-06T06:31:06.599Z,27.73
2023-05-06T06:33:33.105Z,36.85
2023-05-06T06:35:59.581Z,30.63
2023-05-06T06:38:26.038Z,28.60
2023-05-06T06:40:52.492Z,25.45
2023-05-06T06:43:18.990Z,18.55
2023-05-06T06:45:48.518Z,38.47
2023-05-06T06:48:15.352Z,31.77
2023-05-06T06:50:42.074Z,30.42
2023-05-06T06:53:09.700Z,25.15
2023-05-06T06:55:36.205Z,31.33
2023-05-06T06:58:03.114Z,27.38
2023-05-06T07:00:29.625Z,36.28
2023-05-06T07:02:56.215Z,27.48
2023-05-06T07:05:22.836Z,27.95
2023-05-06T07:07:49.360Z,29.70
2023-05-06T07:10:15.932Z,25.92
2023-05-06T07:12:42.465Z,22.63
2023-05-06T07:15:09.563Z,33.55
2023-05-06T07:17:36.268Z,30.02
2023-05-06T07:20:02.952Z,27.00
2023-05-06T07:22:29.436Z,21.52
2023-05-06T07:24:55.985Z,24.58
2023-05-06T07:27:22.489Z,22.17
2023-05-06T07:29:48.968Z,25.77
2023-05-06T07:32:15.406Z,24.17
2023-05-06T07:34:41.916Z,25.65
2023-05-06T07:37:08.370Z,17.77
2023-05-06T07:39:34.955Z,18.48
2023-05-06T07:42:02.914Z,24.80
2023-05-06T07:44:30.291Z,28.55
2023-05-06T07:46:57.084Z,27.58
2023-05-06T07:49:23.843Z,21.75
2023-05-06T07:51:50.590Z,21.95
2023-05-06T07:54:17.344Z,20.15
2023-05-06T07:56:44.075Z,22.25
2023-05-06T07:59:10.783Z,17.88
2023-05-06T08:01:37.420Z,18.20
2023-05-06T08:04:04.294Z,19.70
2023-05-06T08:06:31.028Z,16.70
2023-05-06T08:08:57.690Z,18.65
2023-05-06T08:11:24.481Z,13.07
2023-05-06T08:13:51.197Z,22.35
2023-05-06T08:16:17.937Z,25.02
2023-05-06T08:18:44.718Z,18.17
2023-05-06T08:21:11.171Z,25.70
2023-05-06T08:23:37.614Z,20.50
2023-05-06T08:26:04.154Z,21.98
2023-05-06T08:28:30.680Z,18.58
2023-05-06T08:30:57.371Z,19.15
2023-05-06T08:33:23.851Z,20.70
2023-05-06T08:35:51.429Z,20.23
2023-05-06T08:38:17.887Z,16.63
2023-05-06T08:40:45.067Z,22.60
2023-05-06T08:43:14.820Z,19.27
2023-05-06T08:45:41.968Z,22.45
2023-05-06T08:48:09.212Z,20.58
2023-05-06T08:50:40.606Z,24.92
2023-05-06T08:55:34.795Z,15.45
2023-05-06T08:58:01.494Z,24.08
2023-05-06T09:00:28.006Z,22.67
2023-05-06T09:02:54.700Z,17.35
2023-05-06T09:05:21.227Z,20.42
2023-05-06T09:07:47.700Z,21.63
2023-05-06T09:10:14.641Z,21.35
2023-05-06T09:12:41.204Z,19.58
2023-05-06T09:15:09.557Z,18.98
2023-05-06T09:17:36.235Z,17.40
2023-05-06T09:20:03.064Z,25.17
2023-05-06T09:22:30.676Z,17.38
2023-05-06T09:24:58.308Z,19.20
2023-05-06T09:27:28.191Z,19.85
2023-05-06T09:30:05.716Z,21.02
2023-05-06T09:32:32.902Z,24.45
2023-05-06T09:34:59.552Z,22.77
2023-05-06T09:37:26.315Z,20.75
2023-05-06T09:39:57.572Z,19.25
2023-05-06T09:42:25.604Z,18.02
2023-05-06T09:44:54.836Z,28.73
2023-05-06T09:47:22.391Z,17.85
2023-05-06T09:49:48.884Z,21.40
2023-05-06T09:52:15.699Z,18.52
2023-05-06T09:54:42.789Z,19.67
2023-05-06T09:57:10.154Z,19.88
2023-05-06T09:59:37.105Z,19.30
2023-05-06T10:02:04.850Z,20.33
2023-05-06T10:04:35.192Z,21.60
2023-05-06T10:07:03.126Z,22.80
2023-05-06T10:09:30.030Z,18.42
2023-05-06T10:11:59.032Z,21.15
2023-05-06T10:14:25.504Z,16.23
2023-05-06T10:16:53.286Z,18.23
2023-05-06T10:19:23.796Z,19.23
2023-05-06T10:21:57.241Z,19.40
2023-05-06T10:24:32.395Z,23.15
2023-05-06T10:27:01.942Z,18.30
2023-05-06T10:29:29.124Z,20.13
2023-05-06T10:31:57.171Z,18.42
2023-05-06T10:34:25.546Z,22.92
2023-05-06T10:36:55.894Z,18.67
2023-05-06T10:39:22.988Z,18.17
2023-05-06T10:41:49.522Z,23.13
2023-05-06T10:44:16.260Z,18.77
2023-05-06T10:47:00.115Z,15.93
2023-05-06T10:49:26.891Z,17.83
2023-05-06T10:52:14.319Z,19.60
2023-05-06T10:54:51.282Z,18.00
2023-05-06T10:57:18.070Z,19.45
2023-05-06T10:59:46.227Z,18.10
2023-05-06T11:02:13.233Z,19.05
2023-05-06T11:04:40.127Z,20.60
2023-05-06T11:07:22.287Z,19.80
2023-05-06T11:09:55.960Z,19.90
2023-05-06T11:12:42.764Z,13.88
2023-05-06T11:15:25.874Z,18.00
2023-05-06T11:17:54.294Z,17.73
2023-05-06T11:20:23.351Z,17.17
2023-05-06T11:22:50.172Z,21.75
2023-05-06T11:25:38.898Z,18.50
2023-05-06T11:28:12.256Z,18.00
2023-05-06T11:30:43.531Z,12.98
2023-05-06T11:35:45.716Z,16.45
2023-05-06T11:38:12.501Z,18.88
2023-05-06T11:40:41.483Z,16.55
2023-05-06T11:43:12.245Z,16.55
2023-05-06T11:45:47.178Z,15.18
2023-05-06T11:48:18.081Z,16.33
2023-05-06T11:50:49.093Z,21.92
2023-05-06T11:53:20.248Z,23.55
2023-05-06T11:55:48.196Z,15.40
2023-05-06T11:58:15.840Z,16.73
2023-05-06T12:00:51.355Z,16.48
2023-05-06T12:03:21.392Z,13.98
2023-05-06T12:05:49.279Z,13.63
2023-05-06T12:08:26.569Z,11.65
2023-05-06T12:10:56.814Z,13.45
2023-05-06T12:13:23.546Z,11.98
2023-05-06T12:15:50.692Z,14.38
2023-05-06T12:18:17.501Z,9.88
2023-05-06T12:20:44.327Z,12.40
2023-05-06T12:23:11.787Z,14.38
2023-05-06T12:25:39.749Z,15.80
2023-05-06T12:28:20.155Z,13.25
2023-05-06T12:30:46.810Z,9.07
2023-05-06T12:33:13.528Z,14.90
2023-05-06T12:35:40.946Z,15.75
2023-05-06T12:38:15.522Z,16.85
2023-05-06T12:40:43.826Z,14.77
2023-05-06T12:43:11.500Z,17.40
2023-05-06T12:45:38.679Z,17.45
2023-05-06T12:48:05.629Z,15.80
2023-05-06T12:50:33.254Z,14.43
2023-05-06T12:53:00.147Z,14.20
2023-05-06T12:55:27.023Z,16.48
2023-05-06T12:57:53.489Z,13.55
2023-05-06T13:00:20.603Z,11.48
2023-05-06T13:02:47.596Z,9.15
2023-05-06T13:05:14.226Z,13.35
2023-05-06T13:07:41.179Z,8.70
2023-05-06T13:10:08.288Z,15.52
2023-05-06T13:12:35.247Z,9.32
2023-05-06T13:15:02.192Z,11.00
2023-05-06T13:17:28.733Z,13.48
2023-05-06T13:19:58.423Z,11.40
2023-05-06T13:22:24.912Z,11.73
2023-05-06T13:24:51.381Z,8.90
2023-05-06T13:27:17.935Z,9.45
2023-05-06T13:29:44.435Z,8.02
2023-05-06T13:32:11.068Z,9.95
2023-05-06T13:34:37.564Z,9.63
2023-05-06T13:37:04.037Z,7.78
2023-05-06T13:39:30.546Z,9.00
2023-05-06T13:41:57.006Z,10.88
2023-05-06T13:44:23.469Z,11.50
2023-05-06T13:46:50.108Z,8.90
2023-05-06T13:49:17.946Z,8.73
2023-05-06T13:51:44.395Z,7.95
2023-05-06T13:54:10.943Z,7.38
2023-05-06T13:56:37.518Z,10.30
2023-05-06T13:59:04.091Z,10.23
2023-05-06T14:01:30.864Z,10.85
2023-05-06T14:03:57.391Z,9.32
2023-05-06T14:06:23.839Z,7.57
2023-05-06T14:08:50.379Z,6.70
2023-05-06T14:11:16.851Z,10.35
2023-05-06T14:13:43.349Z,10.95
2023-05-06T14:16:10.182Z,10.25
2023-05-06T14:18:36.656Z,10.05
2023-05-06T14:21:03.191Z,12.85
2023-05-06T14:23:29.717Z,11.35
2023-05-06T14:25:56.207Z,14.52
2023-05-06T14:28:22.728Z,12.35
2023-05-06T14:30:50.585Z,10.60
2023-05-06T14:33:17.128Z,10.57
2023-05-06T14:35:43.606Z,6.65
2023-05-06T14:38:10.615Z,9.82
2023-05-06T14:40:37.155Z,10.77
2023-05-06T14:43:03.643Z,9.25
2023-05-06T14:45:30.257Z,9.88
2023-05-06T14:47:57.068Z,11.88
2023-05-06T14:50:23.618Z,8.15
2023-05-06T14:52:50.140Z,10.60
2023-05-06T14:55:17.188Z,6.65
2023-05-06T14:57:43.653Z,12.23
2023-05-06T15:00:10.526Z,9.20
2023-05-06T15:02:44.862Z,6.60
2023-05-06T15:05:11.604Z,14.95
2023-05-06T15:07:38.342Z,10.73
2023-05-06T15:10:05.298Z,13.63
2023-05-06T15:12:31.879Z,11.70
2023-05-06T15:14:58.431Z,14.25
2023-05-06T15:17:24.941Z,10.00
2023-05-06T15:19:51.523Z,10.30
2023-05-06T15:22:18.041Z,13.20
2023-05-06T15:24:44.510Z,10.32
2023-05-06T15:27:10.989Z,10.00
2023-05-06T15:29:38.572Z,8.68
2023-05-06T15:32:05.503Z,6.93
2023-05-06T15:34:31.992Z,13.20
2023-05-06T15:36:58.491Z,13.57
2023-05-06T15:39:24.947Z,13.45
2023-05-06T15:41:51.403Z,11.48
2023-05-06T15:44:20.659Z,10.27
2023-05-06T15:46:47.851Z,11.50
2023-05-06T15:49:45.646Z,12.70
2023-05-06T15:52:01.227Z,7.50
2023-05-06T15:54:28.275Z,12.88
2023-05-06T15:56:54.766Z,17.75
2023-05-06T15:59:21.249Z,31.55
2023-05-06T16:02:18.946Z,11.52
2023-05-06T16:04:34.449Z,10.48
2023-05-06T16:07:01.957Z,11.63
2023-05-06T16:09:28.442Z,13.95
2023-05-06T16:11:54.989Z,14.73
2023-05-06T16:14:21.532Z,10.23
2023-05-06T16:16:47.977Z,10.75
2023-05-06T16:19:14.453Z,14.27
2023-05-06T16:21:40.909Z,13.00
2023-05-06T16:24:07.669Z,12.63
2023-05-06T16:26:34.129Z,7.70
2023-05-06T16:29:00.591Z,11.05
2023-05-06T16:31:27.087Z,13.27
2023-05-06T16:33:53.606Z,9.25
2023-05-06T16:36:20.039Z,8.05
2023-05-06T16:38:46.646Z,7.40
2023-05-06T16:41:13.086Z,10.05
2023-05-06T16:43:39.560Z,10.60
2023-05-06T16:46:06.209Z,6.32
2023-05-06T16:48:32.808Z,8.73
2023-05-06T16:50:59.319Z,9.68
2023-05-06T16:53:25.776Z,11.30
2023-05-06T16:55:52.258Z,10.80
2023-05-06T16:58:18.821Z,7.88
2023-05-06T17:00:45.316Z,8.57
2023-05-06T17:03:12.005Z,7.82
2023-05-06T17:05:38.805Z,8.60
2023-05-06T17:08:05.426Z,6.45
2023-05-06T17:10:31.967Z,9.73
2023-05-06T17:12:58.790Z,10.13
2023-05-06T17:15:25.411Z,5.38
2023-05-06T17:17:52.041Z,8.55
2023-05-06T17:20:18.835Z,7.65
2023-05-06T17:22:45.701Z,7.88
2023-05-06T17:25:12.182Z,15.52
2023-05-06T17:31:27.298Z,7.57
2023-05-06T17:33:54.216Z,7.03
2023-05-06T17:36:21.065Z,6.25
2023-05-06T17:38:48.372Z,7.85
2023-05-06T17:41:15.683Z,6.07
2023-05-06T17:43:42.266Z,6.03
2023-05-06T17:46:09.154Z,7.88
2023-05-06T17:48:35.725Z,5.18
2023-05-06T17:51:02.825Z,5.43
2023-05-06T17:53:36.991Z,7.82
2023-05-06T17:56:04.050Z,7.28
2023-05-06T17:58:30.865Z,9.93
2023-05-06T18:00:57.411Z,6.43
2023-05-06T18:03:24.314Z,9.98
2023-05-06T18:05:51.161Z,5.75
2023-05-06T18:08:18.200Z,8.50
2023-05-06T18:10:44.907Z,10.10
2023-05-06T18:13:11.497Z,15.73
2023-05-06T18:15:38.088Z,9.30
2023-05-06T18:18:04.929Z,9.80
2023-05-06T18:20:32.259Z,13.23
2023-05-06T18:22:58.765Z,8.32
2023-05-06T18:25:25.306Z,11.80
2023-05-06T18:27:51.866Z,18.80
2023-05-06T18:30:18.461Z,20.85
2023-05-06T18:32:45.200Z,11.18
2023-05-06T18:35:12.101Z,9.55
2023-05-06T18:37:39.009Z,11.25
2023-05-06T18:40:06.344Z,9.68
2023-05-06T18:42:34.014Z,12.57
2023-05-06T18:45:03.514Z,9.13
2023-05-06T18:47:30.019Z,11.57
2023-05-06T18:49:56.514Z,13.73
2023-05-06T18:52:23.227Z,11.07
2023-05-06T18:54:49.786Z,12.90
2023-05-06T18:57:16.305Z,12.25
2023-05-06T18:59:42.857Z,18.92
2023-05-06T19:02:09.402Z,21.17
2023-05-06T19:04:36.432Z,21.95
2023-05-06T19:07:03.044Z,31.33
2023-05-06T19:09:29.809Z,32.60
2023-05-06T19:11:56.373Z,25.73
2023-05-06T19:14:23.651Z,24.67
2023-05-06T19:16:52.219Z,19.90
2023-05-06T19:19:18.929Z,23.10
2023-05-06T19:21:47.970Z,13.10
2023-05-06T19:24:14.508Z,13.88
2023-05-06T19:26:41.035Z,14.20
2023-05-06T19:29:07.583Z,15.30
2023-05-06T19:31:34.395Z,13.50
2023-05-06T19:34:01.044Z,14.98
2023-05-06T19:36:27.587Z,16.13
2023-05-06T19:38:54.054Z,16.40
2023-05-06T19:41:20.556Z,17.00
2023-05-06T19:43:47.047Z,17.55
2023-05-06T19:46:14.014Z,14.77
2023-05-06T19:48:40.563Z,21.48
2023-05-06T19:51:07.581Z,17.80
2023-05-06T19:53:35.781Z,19.38
2023-05-06T19:56:13.201Z,15.80
2023-05-06T19:58:39.804Z,18.85
2023-05-06T20:01:06.476Z,18.63
2023-05-06T20:03:33.311Z,19.33
2023-05-06T20:05:59.955Z,20.88
2023-05-06T20:08:26.801Z,22.08
2023-05-06T20:10:53.667Z,18.10
2023-05-06T20:13:20.274Z,19.50
2023-05-06T20:15:46.955Z,23.92
2023-05-06T20:18:13.561Z,20.60
2023-05-06T20:20:40.176Z,19.98
2023-05-06T20:23:06.948Z,25.35
2023-05-06T20:25:33.601Z,23.33
2023-05-06T20:28:00.106Z,22.00
2023-05-06T20:30:26.808Z,23.92
2023-05-06T20:32:53.573Z,23.73
2023-05-06T20:35:20.222Z,26.92
2023-05-06T20:37:46.696Z,27.10
2023-05-06T20:40:13.669Z,28.58
2023-05-06T20:42:40.224Z,25.73
2023-05-06T20:45:07.465Z,27.33
2023-05-06T20:47:34.386Z,36.95
2023-05-06T20:50:01.425Z,33.85
2023-05-06T20:52:28.034Z,34.17
2023-05-06T20:54:54.518Z,31.85
2023-05-06T20:57:22.209Z,28.83
2023-05-06T20:59:48.742Z,36.92
2023-05-06T21:02:15.423Z,30.45
2023-05-06T21:04:42.243Z,31.58
2023-05-06T21:07:08.807Z,37.97
2023-05-06T21:09:35.674Z,38.58
2023-05-06T21:12:02.535Z,32.67
2023-05-06T21:14:29.072Z,36.40
2023-05-06T21:16:55.874Z,35.88
2023-05-06T21:19:22.424Z,37.70
2023-05-06T21:21:48.908Z,43.20
2023-05-06T21:24:15.485Z,37.03
2023-05-06T21:26:42.044Z,35.58
2023-05-06T21:29:08.593Z,39.75
2023-05-06T21:31:35.259Z,40.17
2023-05-06T21:34:01.957Z,40.22
2023-05-06T21:36:28.459Z,41.85
2023-05-06T21:39:06.343Z,36.92
2023-05-06T21:41:32.902Z,44.15
2023-05-06T21:43:59.416Z,39.10
2023-05-06T21:46:25.993Z,43.92
2023-05-06T21:48:52.748Z,43.47
2023-05-06T21:51:19.572Z,37.05
2023-05-06T21:53:50.288Z,46.13
2023-05-06T21:56:17.814Z,40.10
2023-05-06T21:58:44.589Z,42.25
2023-05-06T22:01:11.481Z,52.80
2023-05-06T22:03:38.120Z,45.55
2023-05-06T22:06:05.073Z,42.15
2023-05-06T22:08:31.654Z,45.78
2023-05-06T22:10:58.360Z,44.92
2023-05-06T22:13:25.675Z,50.25
2023-05-06T22:15:53.041Z,41.88
2023-05-06T22:18:19.725Z,46.05
2023-05-06T22:20:46.623Z,45.20
2023-05-06T22:23:13.355Z,44.53
2023-05-06T22:25:39.837Z,46.50
2023-05-06T22:28:06.426Z,41.72
2023-05-06T22:30:34.183Z,47.47
2023-05-06T22:33:00.699Z,48.80
2023-05-06T22:35:27.421Z,53.03
2023-05-06T22:37:54.562Z,51.40
2023-05-06T22:40:21.214Z,47.38
2023-05-06T22:42:47.950Z,57.78
2023-05-06T22:45:14.510Z,42.22
2023-05-06T22:47:41.259Z,47.20
2023-05-06T22:50:08.116Z,43.95
2023-05-06T22:52:34.717Z,51.08
2023-05-06T22:55:01.512Z,47.17
2023-05-06T22:57:28.042Z,50.60
2023-05-06T22:59:54.569Z,47.22
2023-05-06T23:02:21.293Z,47.08
2023-05-06T23:04:47.855Z,57.65
2023-05-06T23:07:15.117Z,44.28
2023-05-06T23:09:41.600Z,51.42
2023-05-06T23:12:08.104Z,49.90
2023-05-06T23:14:34.627Z,46.20
2023-05-06T23:17:01.216Z,47.78
2023-05-06T23:19:27.772Z,53.03
2023-05-06T23:21:54.287Z,44.58
2023-05-06T23:24:20.759Z,45.20
2023-05-06T23:26:47.249Z,45.60
2023-05-06T23:29:14.057Z,50.90
2023-05-06T23:31:40.638Z,57.60
2023-05-06T23:34:07.145Z,43.88
2023-05-06T23:36:34.063Z,52.92
2023-05-06T23:39:01.049Z,43.53
2023-05-06T23:41:27.872Z,45.75
2023-05-06T23:43:54.431Z,43.55
2023-05-06T23:46:21.117Z,43.92
2023-05-06T23:48:47.687Z,46.20
2023-05-06T23:51:14.212Z,46.63
2023-05-06T23:53:40.961Z,44.28
2023-05-06T23:56:07.656Z,44.70
2023-05-06T23:58:34.184Z,46.17
